Terminal Aerodrome Forecast
Issued by NWS St Louis, MO

Home | Current Version | Previous Version | Text Only | Print | Product List | Glossary On
Versions: 1 2 3 4 5 6 7 8 9
296
FTUS43 KLSX 211741
TAFCOU
TAF
KCOU 211741Z 2118/2218 05010KT P6SM SCT030 BKN100
      TEMPO 2118/2120 BKN030
     FM212100 05010KT 6SM -SHRA SCT040 OVC080
     FM220000 06014KT P6SM VCSH BKN040
     FM220300 06015G22KT 6SM -SHRA OVC020
     FM221200 03015G22KT 6SM -RA OVC015=

USA.gov is the U.S. government's official web portal to all federal, state and local government web resources and services.